createdAt,value
2019-02-09T00:02:07.641Z,100436.30
2019-02-09T00:04:38.236Z,100434.59
2019-02-09T00:07:08.712Z,100434.41
2019-02-09T00:09:39.165Z,100433.53
2019-02-09T00:12:09.772Z,100439.14
2019-02-09T00:14:40.233Z,100434.70
2019-02-09T00:17:10.694Z,100431.65
2019-02-09T00:19:41.190Z,100434.19
2019-02-09T00:22:11.898Z,100430.91
2019-02-09T00:24:42.354Z,100424.98
2019-02-09T00:27:12.962Z,100429.07
2019-02-09T00:29:46.369Z,100431.77
2019-02-09T00:32:15.665Z,100428.59
2019-02-09T00:34:46.139Z,100426.55
2019-02-09T00:37:16.638Z,100429.94
2019-02-09T00:39:47.130Z,100428.95
2019-02-09T00:42:17.629Z,100431.64
2019-02-09T00:44:48.083Z,100431.28
2019-02-09T00:47:18.620Z,100429.70
2019-02-09T00:49:49.059Z,100427.30
2019-02-09T00:52:19.567Z,100428.00
2019-02-09T00:54:50.036Z,100425.36
2019-02-09T00:57:20.541Z,100427.35
2019-02-09T00:59:54.208Z,100424.97
2019-02-09T01:02:23.202Z,100419.64
2019-02-09T01:04:53.803Z,100422.62
2019-02-09T01:07:24.502Z,100420.94
2019-02-09T01:09:55.345Z,100422.28
2019-02-09T01:12:25.911Z,100423.96
2019-02-09T01:14:56.415Z,100427.30
2019-02-09T01:17:26.878Z,100418.06
2019-02-09T01:19:57.385Z,100415.60
2019-02-09T01:22:27.842Z,100415.30
2019-02-09T01:24:58.347Z,100412.06
2019-02-09T01:27:28.800Z,100414.27
2019-02-09T01:30:02.514Z,100405.47
2019-02-09T01:32:31.670Z,100405.34
2019-02-09T01:35:02.285Z,100402.39
2019-02-09T01:37:32.892Z,100403.63
2019-02-09T01:40:03.496Z,100411.29
2019-02-09T01:42:33.954Z,100411.94
2019-02-09T01:45:05.373Z,100404.70
2019-02-09T01:47:35.842Z,100408.95
2019-02-09T01:50:08.513Z,100404.38
2019-02-09T01:52:39.009Z,100408.78
2019-02-09T01:55:09.897Z,100401.53
2019-02-09T01:57:40.506Z,100401.45
2019-02-09T02:00:16.505Z,100403.78
2019-02-09T02:02:47.905Z,100404.44
2019-02-09T02:05:19.023Z,100408.13
2019-02-09T02:07:49.598Z,100403.40
2019-02-09T02:10:36.919Z,100406.91
2019-02-09T02:13:09.397Z,100404.53
2019-02-09T02:15:41.004Z,100406.70
2019-02-09T02:18:12.090Z,100405.19
2019-02-09T02:20:42.567Z,100146.47
2019-02-09T02:23:13.124Z,100406.23
2019-02-09T02:25:43.730Z,100407.88
2019-02-09T02:28:14.193Z,100406.53
2019-02-09T02:30:44.792Z,100406.32
2019-02-09T02:33:15.296Z,100406.58
2019-02-09T02:35:45.955Z,100401.69
2019-02-09T02:38:16.444Z,100400.16
2019-02-09T02:40:46.913Z,100402.16
2019-02-09T02:43:17.416Z,100402.80
2019-02-09T02:45:47.884Z,100402.55
2019-02-09T02:48:18.393Z,100402.90
2019-02-09T02:50:48.848Z,100405.59
2019-02-09T02:53:19.358Z,100406.58
2019-02-09T02:55:49.853Z,100404.94
2019-02-09T02:58:20.352Z,100406.11
2019-02-09T03:00:50.851Z,100408.72
2019-02-09T03:03:21.462Z,100402.25
2019-02-09T03:05:52.011Z,100403.23
2019-02-09T03:08:22.604Z,100410.27
2019-02-09T03:10:53.089Z,100405.59
2019-02-09T03:13:23.553Z,100401.33
2019-02-09T03:15:54.066Z,100407.88
2019-02-09T03:18:24.564Z,100410.56
2019-02-09T03:20:55.198Z,100412.73
2019-02-09T03:23:25.648Z,100412.61
2019-02-09T03:25:56.151Z,100415.03
2019-02-09T03:28:26.603Z,100413.52
2019-02-09T03:30:57.194Z,100416.59
2019-02-09T03:33:27.652Z,100419.72
2019-02-09T03:35:58.199Z,100422.36
2019-02-09T03:38:28.662Z,100416.67
2019-02-09T03:40:59.123Z,100421.48
2019-02-09T03:43:29.626Z,100424.34
2019-02-09T03:46:00.099Z,100416.48
2019-02-09T03:48:30.594Z,100423.86
2019-02-09T03:51:01.150Z,100423.22
2019-02-09T03:53:31.658Z,100424.27
2019-02-09T03:56:02.119Z,100427.09
2019-02-09T03:58:32.713Z,100419.48
2019-02-09T04:01:03.235Z,100428.59
2019-02-09T04:03:33.897Z,100422.41
2019-02-09T04:06:04.675Z,100426.21
2019-02-09T04:08:35.149Z,100424.56
2019-02-09T04:11:05.766Z,100430.37
2019-02-09T04:13:36.265Z,100429.29
2019-02-09T04:16:06.774Z,100429.60
2019-02-09T04:18:37.246Z,100425.36
2019-02-09T04:21:07.871Z,100430.99
2019-02-09T04:23:38.342Z,100432.98
2019-02-09T04:26:08.863Z,100432.29
2019-02-09T04:28:39.331Z,100427.09
2019-02-09T04:31:09.830Z,100435.80
2019-02-09T04:33:40.346Z,100433.33
2019-02-09T04:36:10.904Z,100440.27
2019-02-09T04:38:41.404Z,100441.58
2019-02-09T04:41:12.001Z,100437.84
2019-02-09T04:43:42.661Z,100440.54
2019-02-09T04:46:13.260Z,100435.67
2019-02-09T04:48:43.776Z,100437.36
2019-02-09T04:51:14.279Z,100437.36
2019-02-09T04:53:44.873Z,100440.00
2019-02-09T04:56:15.376Z,100436.80
2019-02-09T04:58:45.831Z,100443.13
2019-02-09T05:01:16.386Z,100446.98
2019-02-09T05:03:47.000Z,100445.52
2019-02-09T05:06:17.447Z,100445.73
2019-02-09T05:08:47.959Z,100445.33
2019-02-09T05:11:18.471Z,100442.35
2019-02-09T05:13:48.970Z,100442.64
2019-02-09T05:16:19.430Z,100448.72
2019-02-09T05:18:49.937Z,100442.30
2019-02-09T05:21:20.433Z,100447.73
2019-02-09T05:23:50.893Z,100449.52
2019-02-09T05:26:21.405Z,100448.16
2019-02-09T05:28:51.867Z,100450.52
2019-02-09T05:31:23.408Z,100452.38
2019-02-09T05:33:54.310Z,100452.42
2019-02-09T05:36:24.845Z,100454.29
2019-02-09T05:38:55.334Z,100454.77
2019-02-09T05:41:25.831Z,100451.00
2019-02-09T05:43:56.337Z,100449.88
2019-02-09T05:46:26.794Z,100451.08
2019-02-09T05:48:57.294Z,100459.11
2019-02-09T05:51:27.784Z,100454.73
2019-02-09T05:53:58.247Z,100462.62
2019-02-09T05:56:28.746Z,100462.53
2019-02-09T05:58:59.251Z,100460.86
2019-02-09T06:01:32.010Z,100461.55
2019-02-09T06:04:01.935Z,100462.45
2019-02-09T06:06:32.405Z,100461.45
2019-02-09T06:09:04.348Z,100466.70
2019-02-09T06:11:34.846Z,100466.39
2019-02-09T06:14:05.756Z,100464.80
2019-02-09T06:16:36.214Z,100467.91
2019-02-09T06:19:06.677Z,100470.73
2019-02-09T06:21:37.179Z,100476.41
2019-02-09T06:24:07.647Z,100468.83
2019-02-09T06:26:38.158Z,100472.94
2019-02-09T06:29:08.657Z,100469.03
2019-02-09T06:31:40.837Z,100474.59
2019-02-09T06:34:11.320Z,100470.38
2019-02-09T06:36:41.841Z,100478.20
2019-02-09T06:39:12.318Z,100482.88
2019-02-09T06:41:42.783Z,100480.05
2019-02-09T06:44:13.285Z,100477.97
2019-02-09T06:46:43.758Z,100481.48
2019-02-09T06:49:14.280Z,100481.63
2019-02-09T06:51:44.730Z,100483.12
2019-02-09T06:54:15.196Z,100482.36
2019-02-09T06:56:45.658Z,100491.55
2019-02-09T06:59:16.163Z,100486.91
2019-02-09T07:01:48.839Z,100491.25
2019-02-09T07:04:18.843Z,100485.61
2019-02-09T07:06:49.297Z,100491.03
2019-02-09T07:09:19.807Z,100488.47
2019-02-09T07:11:50.265Z,100488.03
2019-02-09T07:14:20.776Z,100489.46
2019-02-09T07:16:51.237Z,100491.92
2019-02-09T07:19:21.733Z,100495.22
2019-02-09T07:21:52.201Z,100491.36
2019-02-09T07:24:22.754Z,100491.13
2019-02-09T07:26:53.283Z,100492.83
2019-02-09T07:29:23.805Z,100484.53
2019-02-09T07:31:56.545Z,100495.42
2019-02-09T07:34:26.477Z,100492.81
2019-02-09T07:36:56.941Z,100487.19
2019-02-09T07:39:27.451Z,100490.92
2019-02-09T07:41:57.931Z,100487.39
2019-02-09T07:44:28.422Z,100486.98
2019-02-09T07:46:58.933Z,100488.39
2019-02-09T07:49:29.530Z,100488.52
2019-02-09T07:51:59.977Z,100485.64
2019-02-09T07:54:30.473Z,100484.30
2019-02-09T07:57:00.934Z,100485.92
2019-02-09T07:59:31.440Z,100483.78
2019-02-09T08:02:04.523Z,100489.44
2019-02-09T08:04:34.109Z,100492.66
2019-02-09T08:07:04.714Z,100495.47
2019-02-09T08:09:35.205Z,100495.00
2019-02-09T08:12:06.192Z,100497.02
2019-02-09T08:14:36.754Z,100498.30
2019-02-09T08:17:07.302Z,100499.73
2019-02-09T08:19:37.807Z,100498.39
2019-02-09T08:22:08.384Z,100497.86
2019-02-09T08:24:38.921Z,100494.84
2019-02-09T08:27:09.366Z,100492.07
2019-02-09T08:29:39.938Z,100491.03
2019-02-09T08:32:12.854Z,100495.27
2019-02-09T08:34:42.809Z,100493.65
2019-02-09T08:37:13.270Z,100496.34
2019-02-09T08:39:43.904Z,100495.41
2019-02-09T08:42:14.367Z,100489.23
2019-02-09T08:44:45.048Z,100491.03
2019-02-09T08:47:15.566Z,100489.75
2019-02-09T08:49:46.038Z,100487.87
2019-02-09T08:52:16.546Z,100488.97
2019-02-09T08:54:47.106Z,100493.34
2019-02-09T08:57:17.602Z,100496.45
2019-02-09T08:59:48.198Z,100493.18
2019-02-09T09:02:20.632Z,100491.42
2019-02-09T09:04:50.815Z,100492.28
2019-02-09T09:07:21.421Z,100485.55
2019-02-09T09:09:51.898Z,100484.72
2019-02-09T09:12:22.399Z,100480.08
2019-02-09T09:14:52.863Z,100478.08
2019-02-09T09:17:23.329Z,100486.45
2019-02-09T09:19:53.789Z,100487.97
2019-02-09T09:22:24.279Z,100486.40
2019-02-09T09:24:55.021Z,100480.31
2019-02-09T09:27:25.521Z,100482.73
2019-02-09T09:29:55.986Z,100474.72
2019-02-09T09:32:28.762Z,100480.77
2019-02-09T09:34:58.673Z,100487.22
2019-02-09T09:37:29.201Z,100483.06
2019-02-09T09:39:59.667Z,100488.88
2019-02-09T09:42:30.131Z,100476.41
2019-02-09T09:45:00.647Z,100472.55
2019-02-09T09:47:31.166Z,100476.49
2019-02-09T09:50:01.664Z,100469.12
2019-02-09T09:52:32.123Z,100463.91
2019-02-09T09:55:02.631Z,100460.77
2019-02-09T09:57:33.097Z,100463.55
2019-02-09T10:00:03.612Z,100458.59
2019-02-09T10:02:36.557Z,100453.00
2019-02-09T10:05:07.617Z,100455.50
2019-02-09T10:07:38.068Z,100449.88
2019-02-09T10:10:10.414Z,100451.24
2019-02-09T10:12:40.925Z,100448.12
2019-02-09T10:15:13.374Z,100446.77
2019-02-09T10:17:44.090Z,100437.59
2019-02-09T10:20:17.380Z,100433.83
2019-02-09T10:22:48.002Z,100434.63
2019-02-09T10:25:19.406Z,100434.75
2019-02-09T10:27:50.441Z,100431.30
2019-02-09T10:30:25.639Z,100431.31
2019-02-09T10:32:56.234Z,100434.82
2019-02-09T10:35:26.816Z,100433.03
2019-02-09T10:37:57.344Z,100432.56
2019-02-09T10:40:29.726Z,100421.12
2019-02-09T10:43:00.830Z,100418.41
2019-02-09T10:45:31.655Z,100418.77
2019-02-09T10:48:02.888Z,100418.91
2019-02-09T10:50:38.462Z,100415.42
2019-02-09T10:53:09.218Z,100408.61
2019-02-09T10:55:39.787Z,100404.91
2019-02-09T10:58:10.690Z,100402.98
2019-02-09T11:01:16.157Z,100396.14
2019-02-09T11:03:46.676Z,100396.35
2019-02-09T11:06:17.353Z,100390.03
2019-02-09T11:08:47.828Z,100390.67
2019-02-09T11:11:18.304Z,100387.44
2019-02-09T11:13:48.812Z,100392.77
2019-02-09T11:16:19.271Z,100382.86
2019-02-09T11:18:50.171Z,100377.86
2019-02-09T11:21:20.691Z,100377.20
2019-02-09T11:23:51.157Z,100376.54
2019-02-09T11:26:21.819Z,100369.17
2019-02-09T11:29:10.581Z,100372.92
2019-02-09T11:31:42.822Z,100378.56
2019-02-09T11:34:13.443Z,100374.06
2019-02-09T11:36:44.389Z,100365.75
2019-02-09T11:39:16.232Z,100367.58
2019-02-09T11:41:46.786Z,100369.55
2019-02-09T11:44:17.296Z,100366.09
2019-02-09T11:46:47.827Z,100356.82
2019-02-09T11:49:18.305Z,100360.36
2019-02-09T11:51:48.780Z,100350.47
2019-02-09T11:54:19.297Z,100351.66
2019-02-09T11:56:49.770Z,100346.40
2019-02-09T11:59:21.331Z,100338.32
2019-02-09T12:01:52.109Z,100335.82
2019-02-09T12:04:22.594Z,100336.26
2019-02-09T12:06:53.077Z,100328.80
2019-02-09T12:09:23.631Z,100326.30
2019-02-09T12:11:54.120Z,100311.48
2019-02-09T12:14:24.629Z,100318.33
2019-02-09T12:16:55.195Z,100310.89
2019-02-09T12:19:25.669Z,100314.45
2019-02-09T12:21:56.193Z,100311.69
2019-02-09T12:24:26.766Z,100300.45
2019-02-09T12:26:57.378Z,100304.10
2019-02-09T12:29:27.848Z,100302.18
2019-02-09T12:31:58.451Z,100300.58
2019-02-09T12:34:28.930Z,100307.13
2019-02-09T12:36:59.435Z,100302.45
2019-02-09T12:39:29.978Z,100298.00
2019-02-09T12:42:00.493Z,100297.73
2019-02-09T12:44:30.952Z,100298.41
2019-02-09T12:47:02.440Z,100288.91
2019-02-09T12:49:32.919Z,100282.20
2019-02-09T12:52:03.389Z,100287.03
2019-02-09T12:54:33.891Z,100280.98
2019-02-09T12:57:04.446Z,100280.11
2019-02-09T12:59:35.046Z,100280.72
2019-02-09T13:02:05.655Z,100277.75
2019-02-09T13:04:36.222Z,100282.30
2019-02-09T13:07:06.737Z,100281.27
2019-02-09T13:09:37.205Z,100279.44
2019-02-09T13:12:07.731Z,100277.05
2019-02-09T13:14:38.303Z,100274.96
2019-02-09T13:17:08.926Z,100265.34
2019-02-09T13:19:39.442Z,100271.43
2019-02-09T13:22:09.913Z,100267.84
2019-02-09T13:24:40.375Z,100263.78
2019-02-09T13:27:10.848Z,100267.18
2019-02-09T13:29:41.375Z,100255.58
2019-02-09T13:32:11.890Z,100264.26
2019-02-09T13:34:42.370Z,100265.14
2019-02-09T13:37:12.846Z,100266.12
2019-02-09T13:39:43.400Z,100269.02
2019-02-09T13:42:13.938Z,100266.19
2019-02-09T13:44:44.393Z,100266.33
2019-02-09T13:47:14.991Z,100263.31
2019-02-09T13:49:45.450Z,100264.31
2019-02-09T13:52:15.956Z,100258.58
2019-02-09T13:54:46.595Z,100255.13
2019-02-09T13:57:17.052Z,100263.79
2019-02-09T13:59:47.570Z,100263.67
2019-02-09T14:02:18.051Z,100261.61
2019-02-09T14:04:48.579Z,100264.41
2019-02-09T14:07:19.059Z,100262.69
2019-02-09T14:09:49.565Z,100264.28
2019-02-09T14:12:20.034Z,100260.63
2019-02-09T14:14:50.554Z,100263.01
2019-02-09T14:17:21.032Z,100266.70
2019-02-09T14:19:51.561Z,100270.43
2019-02-09T14:22:22.018Z,100268.91
2019-02-09T14:24:52.527Z,100267.92
2019-02-09T14:27:24.681Z,100267.27
2019-02-09T14:29:55.195Z,100263.95
2019-02-09T14:32:25.763Z,100261.73
2019-02-09T14:34:56.284Z,100261.42
2019-02-09T14:37:26.767Z,100265.72
2019-02-09T14:39:57.293Z,100262.69
2019-02-09T14:42:27.799Z,100266.66
2019-02-09T14:44:58.262Z,100263.99
2019-02-09T14:47:28.723Z,100259.94
2019-02-09T14:49:59.790Z,100261.53
2019-02-09T14:52:30.414Z,100261.59
2019-02-09T14:55:00.870Z,100258.89
2019-02-09T14:57:31.366Z,100137.73
2019-02-09T15:00:01.904Z,100262.74
2019-02-09T15:02:32.509Z,100265.45
2019-02-09T15:05:02.976Z,100261.83
2019-02-09T15:07:33.521Z,100259.45
2019-02-09T15:10:04.875Z,100257.27
2019-02-09T15:12:35.421Z,100250.92
2019-02-09T15:15:09.224Z,100255.73
2019-02-09T15:17:39.730Z,100260.23
2019-02-09T15:20:14.291Z,100252.73
2019-02-09T15:22:44.922Z,100257.95
2019-02-09T15:25:15.661Z,100259.12
2019-02-09T15:27:46.159Z,100259.23
2019-02-09T15:30:20.213Z,100257.67
2019-02-09T15:32:50.728Z,100256.86
2019-02-09T15:35:21.507Z,100263.40
2019-02-09T15:37:51.965Z,100260.09
2019-02-09T15:40:22.621Z,100260.30
2019-02-09T15:42:53.173Z,100255.34
2019-02-09T15:45:24.003Z,100253.47
2019-02-09T15:47:54.449Z,100259.07
2019-02-09T15:50:24.953Z,100269.34
2019-02-09T15:52:55.413Z,100109.16
2019-02-09T15:55:26.127Z,100264.77
2019-02-09T15:57:56.598Z,100265.02
2019-02-09T16:00:28.125Z,100273.41
2019-02-09T16:02:59.062Z,100264.78
2019-02-09T16:05:29.822Z,100270.69
2019-02-09T16:08:00.326Z,100272.75
2019-02-09T16:10:30.938Z,100269.70
2019-02-09T16:13:01.393Z,100272.38
2019-02-09T16:15:32.070Z,100268.62
2019-02-09T16:18:02.575Z,100272.98
2019-02-09T16:20:33.101Z,100270.55
2019-02-09T16:23:03.610Z,100273.72
2019-02-09T16:25:34.217Z,100267.48
2019-02-09T16:28:04.888Z,100278.53
2019-02-09T16:30:35.356Z,100278.50
2019-02-09T16:33:06.105Z,100281.28
2019-02-09T16:35:36.613Z,100278.99
2019-02-09T16:38:07.258Z,100283.00
2019-02-09T16:40:37.953Z,100277.88
2019-02-09T16:43:08.535Z,100284.06
2019-02-09T16:45:39.279Z,100277.17
2019-02-09T16:48:09.892Z,100287.68
2019-02-09T16:50:40.393Z,100159.17
2019-02-09T16:53:10.945Z,100292.27
2019-02-09T16:55:41.451Z,100289.84
2019-02-09T16:58:12.121Z,100287.09
2019-02-09T17:00:43.998Z,100288.81
2019-02-09T17:03:14.874Z,100284.54
2019-02-09T17:05:45.567Z,100287.00
2019-02-09T17:08:16.039Z,100290.77
2019-02-09T17:10:46.596Z,100287.50
2019-02-09T17:13:17.202Z,100294.63
2019-02-09T17:15:47.880Z,100295.39
2019-02-09T17:18:18.481Z,100301.66
2019-02-09T17:20:48.988Z,100300.89
2019-02-09T17:23:19.489Z,100308.51
2019-02-09T17:25:49.970Z,100312.30
2019-02-09T17:28:20.467Z,100309.14
2019-02-09T17:30:50.917Z,100316.57
2019-02-09T17:33:21.428Z,100317.80
2019-02-09T17:35:51.868Z,100311.95
2019-02-09T17:38:22.471Z,100326.09
2019-02-09T17:40:52.940Z,100326.98
2019-02-09T17:43:23.638Z,100328.20
2019-02-09T17:45:57.194Z,100321.22
2019-02-09T17:48:27.791Z,100333.69
2019-02-09T17:50:58.251Z,100329.52
2019-02-09T17:53:28.754Z,100327.72
2019-02-09T17:55:59.246Z,100332.14
2019-02-09T17:58:29.698Z,100333.84
2019-02-09T18:01:09.897Z,100328.17
2019-02-09T18:03:40.502Z,100325.88
2019-02-09T18:06:11.026Z,100324.23
2019-02-09T18:08:41.799Z,100331.66
2019-02-09T18:11:12.294Z,100334.08
2019-02-09T18:13:42.766Z,100329.24
2019-02-09T18:16:13.317Z,100325.28
2019-02-09T18:18:43.779Z,100324.81
2019-02-09T18:21:14.286Z,100327.55
2019-02-09T18:23:44.759Z,100324.73
2019-02-09T18:26:15.254Z,100323.73
2019-02-09T18:28:45.748Z,100333.19
2019-02-09T18:31:16.251Z,100330.05
2019-02-09T18:33:46.717Z,100326.25
2019-02-09T18:36:17.225Z,100326.11
2019-02-09T18:38:47.742Z,100323.12
2019-02-09T18:41:18.208Z,100329.19
2019-02-09T18:43:48.667Z,100336.28
2019-02-09T18:46:19.237Z,100334.16
2019-02-09T18:48:49.740Z,100333.50
2019-02-09T18:51:20.221Z,100328.37
2019-02-09T18:53:50.897Z,100333.00
2019-02-09T18:56:21.545Z,100334.00
2019-02-09T18:58:52.088Z,100338.16
2019-02-09T19:01:22.593Z,100341.05
2019-02-09T19:03:53.105Z,100341.56
2019-02-09T19:06:23.600Z,100209.76
2019-02-09T19:08:54.057Z,100338.95
2019-02-09T19:11:24.549Z,100338.95
2019-02-09T19:13:55.041Z,100349.34
2019-02-09T19:16:25.665Z,100348.55
2019-02-09T19:18:56.133Z,100361.48
2019-02-09T19:21:26.752Z,100365.87
2019-02-09T19:23:57.262Z,100361.71
2019-02-09T19:26:27.830Z,100361.71
2019-02-09T19:28:58.340Z,100361.88
2019-02-09T19:31:31.449Z,100363.91
2019-02-09T19:34:04.922Z,100364.91
2019-02-09T19:36:35.488Z,100372.95
2019-02-09T19:39:09.906Z,100379.00
2019-02-09T19:41:40.420Z,100379.00
2019-02-09T19:44:10.892Z,100376.18
2019-02-09T19:46:41.498Z,100377.20
2019-02-09T19:49:11.970Z,100380.23
2019-02-09T19:51:42.428Z,100380.23
2019-02-09T19:54:12.953Z,100386.14
2019-02-09T19:56:43.545Z,100383.83
2019-02-09T19:59:14.051Z,100388.19
2019-02-09T20:01:44.514Z,100388.35
2019-02-09T20:04:14.969Z,100393.92
2019-02-09T20:06:45.480Z,100382.20
2019-02-09T20:09:15.981Z,100401.66
2019-02-09T20:11:46.494Z,100385.52
2019-02-09T20:14:16.970Z,100385.52
2019-02-09T20:16:47.432Z,100400.93
2019-02-09T20:19:17.933Z,100394.38
2019-02-09T20:21:48.438Z,100402.91
2019-02-09T20:24:18.905Z,100399.72
2019-02-09T20:26:49.515Z,100401.41
2019-02-09T20:29:20.034Z,100407.59
2019-02-09T20:31:50.523Z,100407.45
2019-02-09T20:34:21.048Z,100406.27
2019-02-09T20:36:51.553Z,100402.93
2019-02-09T20:39:22.030Z,100405.63
2019-02-09T20:41:52.552Z,100408.48
2019-02-09T20:44:23.005Z,100404.84
2019-02-09T20:46:53.479Z,100404.84
2019-02-09T20:49:23.993Z,100408.04
2019-02-09T20:51:54.459Z,100398.50
2019-02-09T20:54:24.959Z,100402.53
2019-02-09T20:56:55.453Z,100398.84
2019-02-09T20:59:25.976Z,100394.50
2019-02-09T21:01:56.415Z,100391.48
2019-02-09T21:04:26.930Z,100389.98
2019-02-09T21:06:57.428Z,100386.64
2019-02-09T21:09:27.929Z,100389.68
2019-02-09T21:11:58.386Z,100390.16
2019-02-09T21:14:28.897Z,100390.36
2019-02-09T21:16:59.375Z,100388.67
2019-02-09T21:19:29.849Z,100389.19
2019-02-09T21:22:00.365Z,100397.25
2019-02-09T21:24:30.886Z,100391.22
2019-02-09T21:27:01.415Z,100389.53
2019-02-09T21:29:31.925Z,100389.87
2019-02-09T21:32:02.453Z,100387.88
2019-02-09T21:34:32.952Z,100388.23
2019-02-09T21:37:03.465Z,100388.23
2019-02-09T21:39:34.214Z,100385.72
2019-02-09T21:42:04.826Z,100392.92
2019-02-09T21:44:35.305Z,100397.94
2019-02-09T21:47:05.943Z,100395.41
2019-02-09T21:49:36.397Z,100402.98
2019-02-09T21:52:07.004Z,100398.30
2019-02-09T21:54:37.471Z,100402.48
2019-02-09T21:57:07.992Z,100404.19
2019-02-09T21:59:38.469Z,100410.17
2019-02-09T22:02:09.095Z,100415.72
2019-02-09T22:04:39.554Z,100408.52
2019-02-09T22:07:10.030Z,100412.38
2019-02-09T22:09:40.549Z,100417.38
2019-02-09T22:12:11.112Z,100429.11
2019-02-09T22:14:41.742Z,100431.44
2019-02-09T22:17:12.510Z,100425.27
2019-02-09T22:19:43.027Z,100426.61
2019-02-09T22:22:13.547Z,100427.27
2019-02-09T22:24:44.054Z,100441.84
2019-02-09T22:27:14.566Z,100437.16
2019-02-09T22:29:45.132Z,100435.64
2019-02-09T22:32:15.597Z,100431.10
2019-02-09T22:34:46.112Z,100437.46
2019-02-09T22:37:16.585Z,100436.28
2019-02-09T22:39:47.232Z,100440.95
2019-02-09T22:42:17.784Z,100434.11
2019-02-09T22:44:48.248Z,100436.13
2019-02-09T22:47:18.765Z,100431.41
2019-02-09T22:49:49.239Z,100443.44
2019-02-09T22:52:19.743Z,100439.77
2019-02-09T22:54:50.229Z,100439.39
2019-02-09T22:57:20.726Z,100433.37
2019-02-09T22:59:51.183Z,100433.37
2019-02-09T23:02:21.806Z,100427.37
2019-02-09T23:05:48.050Z,100427.06
2019-02-09T23:08:18.574Z,100426.89
2019-02-09T23:10:49.161Z,100420.70
2019-02-09T23:13:19.671Z,100403.98
2019-02-09T23:15:50.150Z,100411.02
2019-02-09T23:18:20.623Z,100407.02
2019-02-09T23:20:51.125Z,100407.70
2019-02-09T23:23:21.684Z,100399.50
2019-02-09T23:25:52.281Z,100399.50
2019-02-09T23:28:22.754Z,100392.13
2019-02-09T23:30:53.331Z,100392.13
2019-02-09T23:33:23.810Z,100384.97
2019-02-09T23:35:54.349Z,100391.30
2019-02-09T23:38:24.824Z,100386.77
2019-02-09T23:40:55.349Z,100388.97
2019-02-09T23:43:25.936Z,100381.12
2019-02-09T23:45:56.425Z,100381.12
2019-02-09T23:48:26.887Z,100379.56
2019-02-09T23:50:57.385Z,100378.55
2019-02-09T23:53:27.894Z,100375.41
2019-02-09T23:55:58.471Z,100368.06
2019-02-09T23:58:28.961Z,100368.06
